Aviation Digital Data Service (ADDS)

Output produced by METARs form (1252 UTC 05 June 2023)
found at http://www.aviationweather.gov/metar/data/
 
VTSG 051200Z VRB02KT 9999 FEW015 27/25 Q1007 NOSIG
VTSG 051100Z 28007KT 9999 FEW020 28/25 Q1007 NOSIG
VTSG 051000Z 28013KT 220V310 9999 VCSH FEW028CB BKN035 29/25 Q1007 TEMPO FM1020 2000 +RA
VTSG 050900Z 26007KT 230V290 9999 FEW033 31/27 Q1007 NOSIG
VTSG 050800Z 26006KT 9999 SCT025 30/26 Q1007 NOSIG
VTSG 050700Z 25007KT 220V280 9999 FEW013 BKN022 30/27 Q1008 NOSIG
VTSG 050600Z VRB02KT 8000 -RA SCT010 SCT015 BKN027 28/27 Q1009 NOSIG
VTSG 050500Z VRB03KT 9000 -RA FEW012CB BKN015 BKN030 26/26 Q1010 RERA NOSIG
VTSG 050400Z 21004KT 180V250 8000 3900NW -RA FEW016 BKN027 BKN050 26/26 Q1010 RERA NOSIG
VTSG 050300Z 23006KT 7000 -RA SCT007 BKN023 BKN060 25/25 Q1011 RERA NOSIG
VTSG 050200Z 21007KT 170V230 3500 -RA BR FEW005 BKN010 BKN020 25/25 Q1010 BECMG TL0215 7000 NSW
VTSG 050100Z VRB01KT 9999 VCSH FEW016CB SCT020 BKN070 28/26 Q1009 TEMPO TL0200 1500 +RA
VTSG 050000Z 01003KT 320V100 9999 VCSH FEW016TCU SCT018 26/25 Q1008 TEMPO FM0015 TL0040 3000 RA
VTSG 042300Z VRB02KT 9999 VCSH SCT020 25/24 Q1007 TEMPO TL2340 3000 RA
VTSG 042200Z VRB02KT 9999 SCT020 25/24 Q1007 NOSIG
VTSG 042100Z 11002KT 9999 FEW020 25/24 Q1007 NOSIG
VTSG 042000Z VRB02KT 9999 FEW020 25/25 Q1008 NOSIG
VTSG 041900Z VRB01KT 7000 FEW020 25/25 Q1008 NOSIG
VTSG 041800Z 00000KT 9999 VCSH FEW020 SCT045 26/25 Q1009 NOSIG
VTSG 041700Z 00000KT 9999 FEW020 25/25 Q1010 NOSIG
VTSG 041600Z VRB01KT 9999 FEW020 26/25 Q1010 NOSIG
VTSG 041500Z VRB02KT 9999 FEW020 27/25 Q1009 NOSIG
VTSG 041400Z 25004KT 220V290 9999 FEW030 28/25 Q1009 NOSIG
VTSG 041300Z 25004KT 9999 FEW030 28/24 Q1008 NOSIG
VTSG 041200Z 26005KT 240V310 9999 FEW030 29/24 Q1007 NOSIG
TAF VTSG 051100Z 0512/0612 24008KT 9999 SCT020 
     TEMPO 0600/0606 -TSRA FEW018CB SCT020 BKN100